createdAt,value
2023-02-22T00:00:52.925Z,100.63
2023-02-22T00:10:57.144Z,100.51
2023-02-22T00:21:01.909Z,100.65
2023-02-22T00:31:07.199Z,100.63
2023-02-22T00:41:10.150Z,100.68
2023-02-22T00:51:14.340Z,100.36
2023-02-22T01:01:17.755Z,100.35
2023-02-22T01:11:22.234Z,100.48
2023-02-22T01:21:24.841Z,100.53
2023-02-22T01:31:28.871Z,100.75
2023-02-22T01:41:31.586Z,100.51
2023-02-22T01:51:39.145Z,100.54
2023-02-22T02:01:44.519Z,100.64
2023-02-22T02:11:50.837Z,100.48
2023-02-22T02:22:15.786Z,100.41
2023-02-22T02:32:28.986Z,100.68
2023-02-22T02:42:38.050Z,100.03
2023-02-22T02:52:43.220Z,100.45
2023-02-22T03:02:58.827Z,100.36
2023-02-22T03:13:11.642Z,100.67
2023-02-22T03:23:25.140Z,100.56
2023-02-22T03:33:36.238Z,100.77
2023-02-22T03:43:41.102Z,100.54
2023-02-22T03:53:45.582Z,100.61
2023-02-22T04:03:48.313Z,100.83
2023-02-22T04:13:54.678Z,100.59
2023-02-22T04:23:57.265Z,100.75
2023-02-22T04:34:01.248Z,100.60
2023-02-22T04:44:04.085Z,100.86
2023-02-22T04:54:08.152Z,101.06
2023-02-22T05:04:10.750Z,100.84
2023-02-22T05:14:14.705Z,100.57
2023-02-22T05:24:17.903Z,100.20
2023-02-22T05:34:21.915Z,99.64
2023-02-22T05:44:24.531Z,99.17
2023-02-22T05:54:28.701Z,98.95
2023-02-22T06:04:31.497Z,98.39
2023-02-22T06:14:35.869Z,98.38
2023-02-22T06:24:40.178Z,98.12
2023-02-22T06:34:44.131Z,97.87
2023-02-22T06:44:46.728Z,97.42
2023-02-22T06:54:51.125Z,97.23
2023-02-22T07:04:53.764Z,97.16
2023-02-22T07:14:57.735Z,96.65
2023-02-22T07:25:01.092Z,96.68
2023-02-22T07:35:05.133Z,96.69
2023-02-22T07:45:08.392Z,96.61
2023-02-22T07:55:12.484Z,95.79
2023-02-22T08:05:15.686Z,95.51
2023-02-22T08:15:22.347Z,94.71
2023-02-22T08:25:27.004Z,90.66
2023-02-22T08:35:32.641Z,91.60
2023-02-22T08:45:35.315Z,90.30
2023-02-22T08:55:41.725Z,88.38
2023-02-22T09:05:45.108Z,88.94
2023-02-22T09:15:49.132Z,90.46
2023-02-22T09:25:51.888Z,91.37
2023-02-22T09:35:55.880Z,89.34
2023-02-22T09:46:20.252Z,86.10
2023-02-22T09:56:26.686Z,86.88
2023-02-22T10:06:29.636Z,86.24
2023-02-22T10:16:39.557Z,85.91
2023-02-22T10:26:44.070Z,88.25
2023-02-22T10:36:50.899Z,87.70
2023-02-22T10:46:55.338Z,87.67
2023-02-22T10:57:00.105Z,86.61
2023-02-22T11:07:11.118Z,86.89
2023-02-22T11:17:20.228Z,85.84
2023-02-22T11:27:28.270Z,85.27
2023-02-22T11:37:36.368Z,83.07
2023-02-22T11:47:49.138Z,84.26
2023-02-22T11:58:06.946Z,81.29
2023-02-22T12:08:21.674Z,83.99
2023-02-22T12:18:34.557Z,82.66
2023-02-22T12:28:40.147Z,83.17
2023-02-22T12:38:48.302Z,79.35
2023-02-22T12:48:56.685Z,77.01
2023-02-22T12:59:08.306Z,74.89
2023-02-22T13:09:38.514Z,70.52
2023-02-22T13:19:48.170Z,73.35
2023-02-22T13:29:57.761Z,77.69
2023-02-22T13:40:26.795Z,77.60
2023-02-22T13:50:42.966Z,78.46
2023-02-22T14:00:49.240Z,79.85
2023-02-22T14:10:55.011Z,80.89
2023-02-22T14:21:08.920Z,80.99
2023-02-22T14:31:29.414Z,80.62
2023-02-22T14:41:34.575Z,81.89
2023-02-22T14:51:43.186Z,83.36
2023-02-22T15:01:58.694Z,83.39
2023-02-22T15:12:14.058Z,84.04
2023-02-22T15:22:22.759Z,84.22
2023-02-22T15:32:32.097Z,85.17
2023-02-22T15:42:44.357Z,85.48
2023-02-22T15:52:52.998Z,85.90
2023-02-22T16:02:58.881Z,86.00
2023-02-22T16:13:19.085Z,86.50
2023-02-22T16:23:33.061Z,87.10
2023-02-22T16:33:35.887Z,87.54
2023-02-22T16:43:40.401Z,87.95
2023-02-22T16:53:44.447Z,88.35
2023-02-22T17:03:48.465Z,88.53
2023-02-22T17:13:51.967Z,89.28
2023-02-22T17:23:55.897Z,89.41
2023-02-22T17:34:02.785Z,89.79
2023-02-22T17:44:06.898Z,89.90
2023-02-22T17:54:10.533Z,90.34
2023-02-22T18:04:14.577Z,90.64
2023-02-22T18:14:17.174Z,90.79
2023-02-22T18:24:21.179Z,91.04
2023-02-22T18:34:25.019Z,91.24
2023-02-22T18:44:29.071Z,91.41
2023-02-22T18:54:31.661Z,91.42
2023-02-22T19:04:35.778Z,91.54
2023-02-22T19:14:39.530Z,91.94
2023-02-22T19:24:43.689Z,91.95
2023-02-22T19:34:46.924Z,91.91
2023-02-22T19:44:52.541Z,91.79
2023-02-22T19:54:55.232Z,92.02
2023-02-22T20:04:59.227Z,92.30
2023-02-22T20:15:03.077Z,92.43
2023-02-22T20:25:07.484Z,92.36
2023-02-22T20:35:10.154Z,92.23
2023-02-22T20:45:16.112Z,91.98
2023-02-22T20:55:18.985Z,91.76
2023-02-22T21:05:22.969Z,91.69
2023-02-22T21:15:25.888Z,91.75
2023-02-22T21:25:31.495Z,91.94
2023-02-22T21:35:36.823Z,91.98
2023-02-22T21:45:40.935Z,92.82
2023-02-22T21:55:44.115Z,92.44
2023-02-22T22:05:48.613Z,92.86
2023-02-22T22:15:51.370Z,93.11
2023-02-22T22:26:02.108Z,93.22
2023-02-22T22:36:05.872Z,93.91
2023-02-22T22:46:10.182Z,93.69
2023-02-22T22:56:15.778Z,94.49
2023-02-22T23:06:19.743Z,95.78
2023-02-22T23:16:23.060Z,96.17
2023-02-22T23:26:27.495Z,97.13
2023-02-22T23:36:30.124Z,96.61
2023-02-22T23:46:34.203Z,97.13
2023-02-22T23:56:40.030Z,97.52
